Time;durP1;ratioP1;P1;durP2;ratioP2;P2;SDS_P1;SDS_P2;PMS_P1;PMS_P2;Temp;Humidity;BMP_temperature;BMP_pressure;BME280_temperature;BME280_humidity;BME280_pressure;Samples;Min_cycle;Max_cycle;Signal;HPM_P1;HPM_P2
2023/06/09 00:00:28;;;;;;;5.57;2.97;;;18.80;89.30;;;;;;5039186;28;20024;-42
2023/06/09 00:02:54;;;;;;;4.03;2.40;;;18.80;89.40;;;;;;5045357;28;20025;-44
2023/06/09 00:05:23;;;;;;;3.80;2.22;;;18.70;89.50;;;;;;5030281;28;20389;-43
2023/06/09 00:07:52;;;;;;;5.75;2.40;;;18.70;89.60;;;;;;5040395;28;20029;-42
2023/06/09 00:10:18;;;;;;;6.70;3.03;;;18.70;89.70;;;;;;5046277;28;20074;-42
2023/06/09 00:12:44;;;;;;;5.40;2.72;;;18.60;89.90;;;;;;5045283;28;20033;-43
2023/06/09 00:15:14;;;;;;;5.88;3.00;;;18.60;90.00;;;;;;5040113;28;20035;-44
2023/06/09 00:17:41;;;;;;;4.63;2.80;;;18.50;90.00;;;;;;5044241;28;20075;-42
2023/06/09 00:20:08;;;;;;;5.68;2.50;;;18.50;90.10;;;;;;5045855;28;20392;-43
2023/06/09 00:22:35;;;;;;;4.43;2.47;;;18.50;90.10;;;;;;5043739;28;20586;-44
2023/06/09 00:25:01;;;;;;;3.75;2.63;;;18.50;90.20;;;;;;5044881;28;20037;-42
2023/06/09 00:27:27;;;;;;;6.15;2.90;;;18.50;90.20;;;;;;5044788;28;20020;-42
2023/06/09 00:29:52;;;;;;;6.35;2.50;;;18.50;90.20;;;;;;5044612;28;20029;-43
2023/06/09 00:32:19;;;;;;;4.32;2.50;;;18.50;90.20;;;;;;5046022;28;20484;-42
2023/06/09 00:34:45;;;;;;;6.00;2.85;;;18.50;90.30;;;;;;5042485;28;20040;-43
2023/06/09 00:37:10;;;;;;;3.97;2.60;;;18.50;90.30;;;;;;5045417;28;20025;-43
2023/06/09 00:39:36;;;;;;;5.75;3.10;;;18.50;90.30;;;;;;5044697;28;20124;-43
2023/06/09 00:42:02;;;;;;;5.97;3.25;;;18.40;90.30;;;;;;5044081;28;20140;-42
2023/06/09 00:44:27;;;;;;;5.60;2.92;;;18.40;90.40;;;;;;5040869;28;20025;-43
2023/06/09 00:46:53;;;;;;;6.22;2.80;;;18.40;90.40;;;;;;5045183;28;20029;-43
2023/06/09 00:49:19;;;;;;;4.80;2.53;;;18.40;90.40;;;;;;5044387;28;20021;-43
2023/06/09 00:51:45;;;;;;;5.38;2.83;;;18.40;90.50;;;;;;5025088;28;20084;-42
2023/06/09 00:54:12;;;;;;;4.95;2.90;;;18.30;90.50;;;;;;5033538;28;20053;-43
2023/06/09 00:56:39;;;;;;;5.47;2.75;;;18.30;90.60;;;;;;5043756;28;20025;-43
2023/06/09 00:59:06;;;;;;;5.70;2.92;;;18.30;90.70;;;;;;5045281;28;20037;-43
2023/06/09 01:01:33;;;;;;;5.53;2.22;;;18.30;90.70;;;;;;5042086;28;20032;-42
2023/06/09 01:03:59;;;;;;;5.28;2.47;;;18.30;90.80;;;;;;5043347;28;20028;-43
2023/06/09 01:06:47;;;;;;;4.95;2.75;;;18.30;90.80;;;;;;5044566;28;20104;-44
2023/06/09 01:09:49;;;;;;;6.47;2.95;;;18.30;90.80;;;;;;5041709;28;20079;-43
2023/06/09 01:13:01;;;;;;;6.18;2.70;;;18.30;90.80;;;;;;5043367;28;20136;-43
2023/06/09 01:15:31;;;;;;;4.63;2.42;;;18.30;90.80;;;;;;5014400;28;20139;-43
2023/06/09 01:18:02;;;;;;;6.72;2.45;;;18.30;90.80;;;;;;5043869;28;20041;-44
2023/06/09 01:20:46;;;;;;;5.45;2.90;;;18.30;90.90;;;;;;5042618;28;20036;-43
2023/06/09 01:23:33;;;;;;;3.63;2.22;;;18.30;90.90;;;;;;5044423;28;20060;-43
2023/06/09 01:26:01;;;;;;;5.93;2.80;;;18.30;90.90;;;;;;5043920;28;20025;-43
2023/06/09 01:28:28;;;;;;;5.50;2.97;;;18.30;91.00;;;;;;5043236;28;20033;-42
2023/06/09 01:30:55;;;;;;;7.70;3.08;;;18.20;91.10;;;;;;5043035;28;20021;-42
2023/06/09 01:33:23;;;;;;;5.93;3.22;;;18.20;91.20;;;;;;5044579;28;20021;-43
2023/06/09 01:35:50;;;;;;;5.75;3.03;;;18.10;91.30;;;;;;5039610;28;20108;-43
2023/06/09 01:38:19;;;;;;;6.15;3.20;;;18.00;91.50;;;;;;5044215;28;20170;-43
2023/06/09 01:40:45;;;;;;;6.28;2.97;;;17.90;91.50;;;;;;5043149;28;20099;-43
2023/06/09 01:43:11;;;;;;;6.20;2.60;;;17.80;91.60;;;;;;5042688;28;20032;-43
2023/06/09 01:45:37;;;;;;;5.22;2.50;;;17.70;91.60;;;;;;5034957;28;20029;-43
2023/06/09 01:48:35;;;;;;;6.65;2.97;;;17.80;91.70;;;;;;5044801;28;20025;-42
2023/06/09 01:51:16;;;;;;;8.93;2.97;;;17.70;91.90;;;;;;5040757;28;20045;-42
2023/06/09 01:53:48;;;;;;;5.88;2.70;;;17.60;91.90;;;;;;5037676;28;20057;-43
2023/06/09 01:56:25;;;;;;;5.25;2.60;;;17.60;92.00;;;;;;5037701;28;20025;-44
2023/06/09 01:58:57;;;;;;;6.97;2.67;;;17.50;92.00;;;;;;5043817;28;20051;-43
2023/06/09 02:01:25;;;;;;;7.05;2.60;;;17.50;92.10;;;;;;5043098;28;20021;-43
2023/06/09 02:03:53;;;;;;;6.95;2.70;;;17.50;92.20;;;;;;5042394;28;20036;-44
2023/06/09 02:06:20;;;;;;;6.00;2.70;;;17.40;92.20;;;;;;5041801;28;20039;-43
2023/06/09 02:08:45;;;;;;;9.43;3.78;;;17.30;92.30;;;;;;5043227;28;20029;-43
2023/06/09 02:11:11;;;;;;;5.07;2.80;;;17.30;92.50;;;;;;5043914;28;20067;-43
2023/06/09 02:13:37;;;;;;;7.75;2.90;;;17.20;92.60;;;;;;5034998;28;20606;-43
2023/06/09 02:16:03;;;;;;;7.28;2.60;;;17.20;92.60;;;;;;5029925;28;20021;-44
2023/06/09 02:18:29;;;;;;;6.93;2.45;;;17.10;92.70;;;;;;5043441;28;20033;-43
2023/06/09 02:20:54;;;;;;;5.10;3.00;;;17.10;92.70;;;;;;5042655;28;20353;-42
2023/06/09 02:23:22;;;;;;;6.57;2.70;;;17.10;92.80;;;;;;5038510;28;20029;-42
2023/06/09 02:25:48;;;;;;;10.25;3.10;;;17.10;92.80;;;;;;5024802;28;20025;-43
2023/06/09 02:28:16;;;;;;;7.45;2.88;;;17.00;93.20;;;;;;5034473;28;20037;-43
2023/06/09 02:30:43;;;;;;;6.07;2.70;;;17.00;93.00;;;;;;5031508;28;20064;-43
2023/06/09 02:33:08;;;;;;;5.32;2.60;;;17.00;93.00;;;;;;5041112;28;20036;-43
2023/06/09 02:35:34;;;;;;;4.22;2.53;;;16.90;93.10;;;;;;5022148;28;20487;-44
2023/06/09 02:38:05;;;;;;;6.60;3.05;;;16.90;93.10;;;;;;5039239;28;20484;-44
2023/06/09 02:40:31;;;;;;;6.57;2.80;;;16.90;93.20;;;;;;5042705;28;20072;-43
2023/06/09 02:42:57;;;;;;;7.00;2.60;;;16.80;93.20;;;;;;5041547;28;20476;-43
2023/06/09 02:45:22;;;;;;;7.85;3.40;;;16.80;93.20;;;;;;5042148;28;20040;-44
2023/06/09 02:47:48;;;;;;;6.90;3.05;;;16.80;93.20;;;;;;5042777;28;20029;-43
2023/06/09 02:50:14;;;;;;;4.97;2.70;;;16.70;93.30;;;;;;5043392;28;20382;-43
2023/06/09 02:52:39;;;;;;;6.40;3.08;;;16.70;93.40;;;;;;5041723;28;20043;-43
2023/06/09 02:55:06;;;;;;;6.97;2.72;;;16.70;93.40;;;;;;5039372;28;20141;-43
2023/06/09 02:57:32;;;;;;;5.47;2.85;;;16.70;93.40;;;;;;5042216;28;20021;-43
2023/06/09 02:59:58;;;;;;;6.13;2.40;;;16.60;93.50;;;;;;5039099;28;20033;-42
2023/06/09 03:02:24;;;;;;;8.15;3.28;;;16.60;93.50;;;;;;5042452;28;20031;-44
2023/06/09 03:04:52;;;;;;;6.45;3.20;;;16.60;93.60;;;;;;5043177;28;20047;-42
2023/06/09 03:07:17;;;;;;;5.53;3.25;;;16.50;93.60;;;;;;5042804;28;20032;-44
2023/06/09 03:09:43;;;;;;;7.32;3.05;;;16.50;93.70;;;;;;5041622;28;20067;-43
2023/06/09 03:12:10;;;;;;;6.35;2.80;;;16.50;93.70;;;;;;5042640;28;20385;-42
2023/06/09 03:14:35;;;;;;;8.10;3.03;;;16.50;93.80;;;;;;5041703;28;20025;-43
2023/06/09 03:17:04;;;;;;;7.57;3.60;;;16.40;93.80;;;;;;5042057;28;20032;-43
2023/06/09 03:19:30;;;;;;;10.13;3.55;;;16.40;93.80;;;;;;5042309;28;20040;-42
2023/06/09 03:21:57;;;;;;;6.90;3.70;;;16.40;93.90;;;;;;5041860;28;20384;-43
2023/06/09 03:24:23;;;;;;;6.13;2.80;;;16.30;94.00;;;;;;5042124;28;20041;-43
2023/06/09 03:26:49;;;;;;;6.95;3.75;;;16.30;94.00;;;;;;5042027;28;20024;-43
2023/06/09 03:29:15;;;;;;;9.63;3.30;;;16.30;94.10;;;;;;5042903;28;20025;-44
2023/06/09 03:31:43;;;;;;;5.80;3.13;;;16.20;94.10;;;;;;5031659;28;20061;-42
2023/06/09 03:34:08;;;;;;;7.40;3.03;;;16.30;94.20;;;;;;5033863;28;20087;-44
2023/06/09 03:36:35;;;;;;;4.55;2.92;;;16.20;94.20;;;;;;5042783;28;20021;-43
2023/06/09 03:39:00;;;;;;;7.28;3.47;;;16.20;94.20;;;;;;5041884;28;20045;-42
2023/06/09 03:41:26;;;;;;;8.95;3.47;;;16.20;94.30;;;;;;5041774;28;20074;-43
2023/06/09 03:43:52;;;;;;;5.32;3.05;;;16.20;94.40;;;;;;5042768;28;20025;-43
2023/06/09 03:46:17;;;;;;;5.82;3.00;;;16.20;94.40;;;;;;5042291;28;20162;-43
2023/06/09 03:48:43;;;;;;;6.32;2.80;;;16.20;94.40;;;;;;5041967;28;20482;-43
2023/06/09 03:51:08;;;;;;;4.90;2.78;;;16.20;94.40;;;;;;5041621;28;20029;-44
2023/06/09 03:53:34;;;;;;;6.22;3.03;;;16.10;94.50;;;;;;5044400;28;20500;-43
2023/06/09 03:56:00;;;;;;;7.05;2.80;;;16.20;94.60;;;;;;5046179;28;20516;-42
2023/06/09 03:58:26;;;;;;;6.65;2.72;;;16.10;94.60;;;;;;5045678;28;20543;-43
2023/06/09 04:00:52;;;;;;;5.07;3.25;;;16.10;94.60;;;;;;5045499;28;20370;-41
2023/06/09 04:03:18;;;;;;;7.18;3.30;;;16.10;94.70;;;;;;5041289;28;20464;-43
2023/06/09 04:05:44;;;;;;;6.50;3.28;;;16.10;94.80;;;;;;5044679;28;20077;-43
2023/06/09 04:08:10;;;;;;;6.97;2.95;;;16.10;94.80;;;;;;5045966;28;20446;-44
2023/06/09 04:10:36;;;;;;;7.28;3.38;;;16.10;94.90;;;;;;5045692;28;20025;-42
2023/06/09 04:13:02;;;;;;;6.53;2.95;;;16.10;95.00;;;;;;5045079;28;20471;-43
2023/06/09 04:15:27;;;;;;;8.90;3.58;;;16.10;95.00;;;;;;5045777;28;20020;-43
2023/06/09 04:17:56;;;;;;;7.43;3.17;;;16.10;95.10;;;;;;5045720;28;20036;-43
2023/06/09 04:20:22;;;;;;;6.32;3.08;;;16.10;95.20;;;;;;5045459;28;20025;-43
2023/06/09 04:22:51;;;;;;;6.72;3.58;;;16.10;95.20;;;;;;5045926;28;20025;-44
2023/06/09 04:25:19;;;;;;;6.13;3.10;;;16.10;95.20;;;;;;5043967;28;20495;-43
2023/06/09 04:27:45;;;;;;;7.25;3.55;;;16.10;95.30;;;;;;5043048;28;20132;-43
2023/06/09 04:30:11;;;;;;;5.53;3.00;;;16.10;95.30;;;;;;5044511;28;20522;-43
2023/06/09 04:32:37;;;;;;;7.35;3.33;;;16.10;95.40;;;;;;5045544;28;20105;-43
2023/06/09 04:35:03;;;;;;;6.18;3.25;;;16.10;95.40;;;;;;5044356;28;20035;-43
2023/06/09 04:37:29;;;;;;;6.15;3.40;;;16.10;95.40;;;;;;5044858;28;20044;-44
2023/06/09 04:39:55;;;;;;;6.30;3.03;;;16.20;95.50;;;;;;5045492;28;20105;-42
2023/06/09 04:42:22;;;;;;;8.13;3.50;;;16.20;95.60;;;;;;5044589;28;20032;-43
2023/06/09 04:44:48;;;;;;;7.68;3.90;;;16.20;95.70;;;;;;5045210;28;20076;-43
2023/06/09 04:47:17;;;;;;;4.95;3.10;;;16.20;95.70;;;;;;5041010;28;20028;-43
2023/06/09 04:49:46;;;;;;;6.43;2.90;;;16.20;95.80;;;;;;5024513;28;20033;-42
2023/06/09 04:52:17;;;;;;;8.35;3.60;;;16.20;95.80;;;;;;5036350;28;20918;-42
2023/06/09 04:54:44;;;;;;;5.95;3.58;;;16.20;95.80;;;;;;5045485;28;20041;-43
2023/06/09 04:57:10;;;;;;;8.60;3.78;;;16.20;95.90;;;;;;5044004;28;20099;-42
2023/06/09 04:59:40;;;;;;;6.10;3.22;;;16.30;96.00;;;;;;5044537;28;20342;-42
2023/06/09 05:02:09;;;;;;;7.90;4.07;;;16.30;96.00;;;;;;5043633;28;20669;-43
2023/06/09 05:04:35;;;;;;;5.60;2.85;;;16.40;96.00;;;;;;5044728;28;20043;-43
2023/06/09 05:07:01;;;;;;;5.45;3.33;;;16.40;96.10;;;;;;5045033;28;20025;-43
2023/06/09 05:09:27;;;;;;;8.23;3.33;;;16.40;96.10;;;;;;5044265;28;20024;-42
2023/06/09 05:11:53;;;;;;;7.47;3.10;;;16.40;96.10;;;;;;5044780;28;20039;-43
2023/06/09 05:14:18;;;;;;;7.72;3.42;;;16.40;96.20;;;;;;5044392;28;20563;-44
2023/06/09 05:16:45;;;;;;;6.25;3.20;;;16.40;96.30;;;;;;5044321;28;20481;-44
2023/06/09 05:19:11;;;;;;;6.07;3.45;;;16.50;96.30;;;;;;5044437;28;20140;-43
2023/06/09 05:21:38;;;;;;;6.88;2.92;;;16.50;96.40;;;;;;5044294;28;20081;-44
2023/06/09 05:24:04;;;;;;;6.75;3.00;;;16.50;96.40;;;;;;5034858;28;20113;-43
2023/06/09 05:26:30;;;;;;;6.80;3.58;;;16.50;96.40;;;;;;5044261;28;20056;-43
2023/06/09 05:28:55;;;;;;;5.65;3.42;;;16.60;96.50;;;;;;5044461;28;20067;-43
2023/06/09 05:31:23;;;;;;;7.28;3.22;;;16.60;96.60;;;;;;5043261;28;20731;-43
2023/06/09 05:33:48;;;;;;;6.60;3.67;;;16.60;96.60;;;;;;5044223;28;20083;-43
2023/06/09 05:36:14;;;;;;;7.30;3.65;;;16.70;96.70;;;;;;5034440;28;20038;-43
2023/06/09 05:38:40;;;;;;;8.77;4.10;;;16.70;96.70;;;;;;5036585;28;20029;-42
2023/06/09 05:41:06;;;;;;;7.70;3.80;;;16.80;96.80;;;;;;5042507;28;20381;-43
2023/06/09 05:43:31;;;;;;;6.40;3.95;;;16.80;96.90;;;;;;5043702;28;20043;-42
2023/06/09 05:45:57;;;;;;;5.88;3.40;;;16.90;96.90;;;;;;5036643;28;20499;-42
2023/06/09 05:48:23;;;;;;;7.38;3.65;;;16.90;97.00;;;;;;5032160;28;20040;-43
2023/06/09 05:50:48;;;;;;;6.72;3.42;;;17.00;97.00;;;;;;5043040;28;20031;-42
2023/06/09 05:53:17;;;;;;;7.90;3.78;;;17.10;97.10;;;;;;5043078;28;20048;-43
2023/06/09 05:55:44;;;;;;;5.50;3.22;;;17.10;97.10;;;;;;5043859;28;20116;-42
2023/06/09 05:58:11;;;;;;;7.22;3.60;;;17.20;97.20;;;;;;5043361;28;20096;-43
2023/06/09 06:00:37;;;;;;;7.32;4.32;;;17.30;97.20;;;;;;5036214;28;20495;-42
2023/06/09 06:03:06;;;;;;;6.68;3.45;;;17.30;97.20;;;;;;5043370;28;20052;-43
2023/06/09 06:05:31;;;;;;;6.18;3.50;;;17.40;97.30;;;;;;5040214;28;20028;-42
2023/06/09 06:07:58;;;;;;;7.70;3.60;;;17.50;97.40;;;;;;5044455;28;20369;-43
2023/06/09 06:10:25;;;;;;;5.55;3.22;;;17.60;97.40;;;;;;5043068;28;20548;-43
2023/06/09 06:12:50;;;;;;;5.50;3.47;;;17.60;97.40;;;;;;5042645;28;20043;-43
2023/06/09 06:15:16;;;;;;;6.10;3.85;;;17.70;97.40;;;;;;5041578;28;20032;-43
2023/06/09 06:17:41;;;;;;;6.00;3.08;;;17.80;97.50;;;;;;5024574;28;20048;-44
2023/06/09 06:20:07;;;;;;;6.05;3.70;;;17.90;97.50;;;;;;5037184;28;20024;-45
2023/06/09 06:22:33;;;;;;;8.10;4.07;;;17.90;97.50;;;;;;5043242;28;20165;-43
2023/06/09 06:24:59;;;;;;;6.30;3.92;;;17.90;97.50;;;;;;5044009;28;20417;-43
2023/06/09 06:27:24;;;;;;;5.70;3.70;;;18.00;97.50;;;;;;5042579;28;20021;-43
2023/06/09 06:29:50;;;;;;;6.57;4.00;;;18.00;97.50;;;;;;5044057;28;20473;-44
2023/06/09 06:32:15;;;;;;;4.50;3.58;;;18.10;97.50;;;;;;5043214;28;20037;-43
2023/06/09 06:34:41;;;;;;;7.40;3.88;;;18.20;97.60;;;;;;5039016;28;20033;-43
2023/06/09 06:37:07;;;;;;;5.82;3.78;;;18.20;97.60;;;;;;5042916;28;20036;-43
2023/06/09 06:39:32;;;;;;;4.95;3.40;;;18.30;97.60;;;;;;5038876;28;20045;-42
2023/06/09 06:41:58;;;;;;;6.95;4.20;;;18.30;97.80;;;;;;5041885;28;20120;-42
2023/06/09 06:44:24;;;;;;;7.22;4.07;;;18.30;97.50;;;;;;5042011;28;20032;-43
2023/06/09 06:46:49;;;;;;;5.18;3.83;;;18.40;97.60;;;;;;5043220;28;20028;-42
2023/06/09 06:49:15;;;;;;;4.60;3.50;;;18.50;97.60;;;;;;5041871;28;20029;-43
2023/06/09 06:51:41;;;;;;;7.30;3.75;;;18.50;97.60;;;;;;5042387;28;20036;-43
2023/06/09 06:54:09;;;;;;;5.35;3.50;;;18.50;97.60;;;;;;5043144;28;20514;-43
2023/06/09 06:56:35;;;;;;;7.78;3.70;;;18.60;97.60;;;;;;5042307;28;20028;-42
2023/06/09 06:59:00;;;;;;;7.05;3.92;;;18.70;97.60;;;;;;5023699;28;20478;-43
2023/06/09 07:01:26;;;;;;;7.80;4.60;;;18.80;97.60;;;;;;5034635;28;20602;-42
2023/06/09 07:03:52;;;;;;;7.82;4.03;;;18.80;97.70;;;;;;5037450;28;20025;-43
2023/06/09 07:06:19;;;;;;;7.97;4.10;;;18.90;97.60;;;;;;5035072;28;20018;-43
2023/06/09 07:08:44;;;;;;;5.20;4.20;;;18.90;97.60;;;;;;5032950;28;20247;-43
2023/06/09 07:11:10;;;;;;;5.10;3.63;;;19.00;97.60;;;;;;5035628;28;20103;-43
2023/06/09 07:13:36;;;;;;;5.97;3.90;;;19.00;97.50;;;;;;5042671;28;20859;-43
2023/06/09 07:16:01;;;;;;;7.63;4.20;;;19.10;97.50;;;;;;5041991;28;20021;-44
2023/06/09 07:18:27;;;;;;;6.57;4.07;;;19.20;97.50;;;;;;5042300;28;20037;-43
2023/06/09 07:20:53;;;;;;;6.55;3.83;;;19.20;97.50;;;;;;5041432;28;20132;-44
2023/06/09 07:23:19;;;;;;;7.55;4.35;;;19.30;97.50;;;;;;5040133;28;20108;-43
2023/06/09 07:25:45;;;;;;;5.72;4.00;;;19.30;97.50;;;;;;5040070;28;20535;-42
2023/06/09 07:28:10;;;;;;;6.43;3.70;;;19.30;97.50;;;;;;5044392;28;20036;-43
2023/06/09 07:30:39;;;;;;;7.70;3.78;;;19.40;97.50;;;;;;5041296;28;20026;-42
2023/06/09 07:33:05;;;;;;;6.63;4.25;;;19.50;97.50;;;;;;5045302;28;20137;-44
2023/06/09 07:35:33;;;;;;;7.30;5.85;;;19.50;97.40;;;;;;5046287;28;20041;-43
2023/06/09 07:37:59;;;;;;;7.78;4.80;;;19.60;97.40;;;;;;5044910;28;20631;-43
2023/06/09 07:40:24;;;;;;;5.50;4.03;;;19.60;97.40;;;;;;5045800;28;20091;-44
2023/06/09 07:42:50;;;;;;;7.22;4.30;;;19.70;97.40;;;;;;5046298;28;20029;-43
2023/06/09 07:45:16;;;;;;;6.55;4.30;;;19.80;97.40;;;;;;5044752;28;21581;-42
2023/06/09 07:47:41;;;;;;;8.70;4.22;;;19.80;97.40;;;;;;5045617;28;20489;-43
2023/06/09 07:50:08;;;;;;;6.15;3.65;;;19.90;97.40;;;;;;5045534;28;20028;-43
2023/06/09 07:52:37;;;;;;;4.45;3.30;;;19.90;97.30;;;;;;5041495;28;20050;-43
2023/06/09 07:55:03;;;;;;;5.25;3.88;;;20.00;97.30;;;;;;5037817;28;20090;-43
2023/06/09 07:57:29;;;;;;;4.55;3.28;;;20.10;97.30;;;;;;5031959;28;20076;-44
2023/06/09 07:59:55;;;;;;;6.15;3.40;;;20.10;97.20;;;;;;5045632;28;20079;-43
2023/06/09 08:02:20;;;;;;;4.22;3.47;;;20.20;97.20;;;;;;5042439;28;20100;-44
2023/06/09 08:04:46;;;;;;;3.28;2.70;;;20.20;97.20;;;;;;5039820;28;20563;-44
2023/06/09 08:07:12;;;;;;;4.72;3.17;;;20.30;97.20;;;;;;5042927;28;20106;-42
2023/06/09 08:09:37;;;;;;;4.15;3.05;;;20.30;97.20;;;;;;5034768;28;20025;-43
2023/06/09 08:12:06;;;;;;;5.07;3.10;;;20.40;97.20;;;;;;5024497;28;20533;-44
2023/06/09 08:14:31;;;;;;;3.65;3.10;;;20.40;97.20;;;;;;5044874;28;20033;-42
2023/06/09 08:16:57;;;;;;;6.40;3.65;;;20.50;97.20;;;;;;5046244;28;20082;-43
2023/06/09 08:19:25;;;;;;;4.65;4.03;;;20.60;97.10;;;;;;5043786;28;20033;-43
2023/06/09 08:21:51;;;;;;;4.35;3.60;;;20.60;97.20;;;;;;5046703;28;20060;-44
2023/06/09 08:24:17;;;;;;;5.80;4.20;;;20.70;97.10;;;;;;5045368;28;20052;-45
2023/06/09 08:26:48;;;;;;;5.70;3.65;;;20.70;97.10;;;;;;5045334;28;20223;-43
2023/06/09 08:29:15;;;;;;;4.60;3.45;;;20.80;97.10;;;;;;5045421;28;20549;-43
2023/06/09 08:31:41;;;;;;;5.20;3.72;;;20.90;97.20;;;;;;5045464;28;20029;-44
2023/06/09 08:34:07;;;;;;;8.10;4.13;;;20.90;97.20;;;;;;5045122;28;20056;-44
2023/06/09 08:36:33;;;;;;;6.15;4.43;;;20.90;97.20;;;;;;5044769;28;20060;-44
2023/06/09 08:38:58;;;;;;;5.18;4.40;;;21.00;97.20;;;;;;5045586;28;20041;-43
2023/06/09 08:41:27;;;;;;;5.55;4.10;;;21.00;97.20;;;;;;5044445;28;20028;-43
2023/06/09 08:43:53;;;;;;;4.30;3.72;;;21.10;97.20;;;;;;5045994;28;20029;-42
2023/06/09 08:46:21;;;;;;;7.15;4.35;;;21.20;97.50;;;;;;5045514;28;20411;-43
2023/06/09 08:48:51;;;;;;;5.10;3.65;;;21.30;97.20;;;;;;5044692;28;20167;-43
2023/06/09 08:51:17;;;;;;;7.03;3.90;;;21.40;97.10;;;;;;5045454;28;20024;-44
2023/06/09 08:53:44;;;;;;;5.82;4.30;;;21.40;97.00;;;;;;5043239;28;20052;-43
2023/06/09 08:56:11;;;;;;;5.25;3.42;;;21.50;97.00;;;;;;5040890;28;20454;-43
2023/06/09 08:58:38;;;;;;;5.38;3.45;;;21.50;96.90;;;;;;5044803;28;20036;-44
2023/06/09 09:01:04;;;;;;;7.10;4.22;;;21.50;96.80;;;;;;5043884;28;20110;-43
2023/06/09 09:03:29;;;;;;;5.97;4.20;;;21.60;97.10;;;;;;5044737;28;20038;-43
2023/06/09 09:05:55;;;;;;;8.40;4.63;;;21.70;96.80;;;;;;5044675;28;20052;-43
2023/06/09 09:08:20;;;;;;;5.18;4.00;;;21.70;96.80;;;;;;5044011;28;20035;-43
2023/06/09 09:10:46;;;;;;;6.22;4.32;;;21.80;96.80;;;;;;5045119;28;20021;-43
2023/06/09 09:13:13;;;;;;;4.75;3.80;;;21.80;96.80;;;;;;5044913;28;20123;-43
2023/06/09 09:15:58;;;;;;;6.30;4.30;;;21.90;96.70;;;;;;5043738;28;20748;-43
2023/06/09 09:18:29;;;;;;;5.78;3.83;;;21.90;96.70;;;;;;5044751;28;20029;-44
2023/06/09 09:20:55;;;;;;;5.28;4.15;;;21.90;96.60;;;;;;5045002;28;20655;-43
2023/06/09 09:23:37;;;;;;;4.38;3.97;;;22.00;96.60;;;;;;5043859;28;20025;-43
2023/06/09 09:26:03;;;;;;;4.97;3.75;;;22.10;96.50;;;;;;5044896;28;20512;-43
2023/06/09 09:28:42;;;;;;;4.97;3.55;;;22.10;96.50;;;;;;5044044;28;20036;-43
2023/06/09 09:31:08;;;;;;;5.43;4.00;;;22.20;96.40;;;;;;5044452;28;20025;-43
2023/06/09 09:33:38;;;;;;;4.70;3.88;;;22.20;96.40;;;;;;5044488;28;20329;-44
2023/06/09 09:36:09;;;;;;;6.78;4.50;;;22.30;96.40;;;;;;5044968;28;20036;-43
2023/06/09 09:38:34;;;;;;;6.10;4.72;;;22.30;96.40;;;;;;5043769;28;20025;-43
2023/06/09 09:41:00;;;;;;;6.55;4.60;;;22.40;96.40;;;;;;5044735;28;20043;-43
2023/06/09 09:43:28;;;;;;;6.30;4.18;;;22.40;96.30;;;;;;5043167;28;20468;-43
2023/06/09 09:45:55;;;;;;;8.30;4.18;;;22.50;96.20;;;;;;5044410;28;20075;-44
2023/06/09 09:48:23;;;;;;;7.18;4.75;;;22.50;96.10;;;;;;5031946;28;20641;-44
2023/06/09 09:50:51;;;;;;;4.20;3.53;;;22.60;96.00;;;;;;5043900;28;20037;-43
2023/06/09 09:53:20;;;;;;;4.13;3.70;;;22.60;95.90;;;;;;5043326;28;20033;-43
2023/06/09 09:55:46;;;;;;;5.30;4.10;;;22.70;95.90;;;;;;5044055;28;20017;-43
2023/06/09 09:58:13;;;;;;;6.18;4.38;;;22.70;95.90;;;;;;5043690;28;20025;-42
2023/06/09 10:00:42;;;;;;;6.07;3.75;;;22.70;95.80;;;;;;5043936;28;20025;-43
2023/06/09 10:03:09;;;;;;;6.72;4.13;;;22.80;95.70;;;;;;5043762;28;20135;-43
2023/06/09 10:05:37;;;;;;;5.40;3.80;;;22.90;95.70;;;;;;5042777;28;20020;-43
2023/06/09 10:08:05;;;;;;;5.85;3.85;;;22.90;95.70;;;;;;5043518;28;20037;-43
2023/06/09 10:10:31;;;;;;;4.70;4.10;;;23.00;95.60;;;;;;5043575;28;20052;-44
2023/06/09 10:12:57;;;;;;;5.07;3.58;;;23.10;95.50;;;;;;5043142;28;20052;-44
2023/06/09 10:15:24;;;;;;;4.47;3.78;;;23.20;95.40;;;;;;5043177;28;20029;-44
2023/06/09 10:17:53;;;;;;;4.15;3.38;;;23.20;95.30;;;;;;5043702;28;20102;-44
2023/06/09 10:20:19;;;;;;;4.22;3.53;;;23.30;95.20;;;;;;5042455;28;20056;-44
2023/06/09 10:22:46;;;;;;;3.30;3.00;;;23.30;95.20;;;;;;5043119;28;20040;-43
2023/06/09 10:25:12;;;;;;;5.45;3.60;;;23.40;95.10;;;;;;5043558;28;20526;-43
2023/06/09 10:27:38;;;;;;;3.72;3.42;;;23.40;94.90;;;;;;5042199;28;20029;-43
2023/06/09 10:30:05;;;;;;;7.38;3.55;;;23.50;94.80;;;;;;5043760;28;20021;-43
2023/06/09 10:32:38;;;;;;;3.80;3.05;;;23.60;94.70;;;;;;5042570;28;20087;-44
2023/06/09 10:35:05;;;;;;;4.25;3.85;;;23.70;94.50;;;;;;5043521;28;20032;-42
2023/06/09 10:37:32;;;;;;;5.45;3.30;;;23.80;94.30;;;;;;5042580;28;20037;-43
2023/06/09 10:40:13;;;;;;;3.53;3.08;;;23.80;94.10;;;;;;5042792;28;20098;-43
2023/06/09 10:43:24;;;;;;;3.67;3.03;;;23.90;93.90;;;;;;5042531;28;20127;-44
2023/06/09 10:45:55;;;;;;;4.05;3.00;;;23.90;93.80;;;;;;5036626;28;20032;-43
2023/06/09 10:48:44;;;;;;;3.75;3.10;;;24.00;93.70;;;;;;5041884;28;20036;-43
2023/06/09 10:51:26;;;;;;;4.35;3.47;;;24.00;93.30;;;;;;5043555;28;20037;-43
2023/06/09 10:54:10;;;;;;;5.53;3.80;;;24.00;93.10;;;;;;5042510;28;20124;-34
2023/06/09 10:56:40;;;;;;;7.05;3.60;;;24.10;92.90;;;;;;5042890;28;20075;-33
2023/06/09 10:59:25;;;;;;;4.18;3.30;;;24.10;92.80;;;;;;5043504;28;20036;-34
2023/06/09 11:02:02;;;;;;;7.47;3.20;;;24.20;92.70;;;;;;5049928;28;20029;-33
2023/06/09 11:04:45;;;;;;;4.70;3.72;;;24.20;92.60;;;;;;5049122;28;20333;-33
2023/06/09 11:07:20;;;;;;;4.72;3.30;;;24.30;92.40;;;;;;5049755;28;20530;-33
2023/06/09 11:10:05;;;;;;;4.78;3.45;;;24.40;92.20;;;;;;5049093;28;20079;-35
2023/06/09 11:12:37;;;;;;;4.45;3.33;;;24.50;92.20;;;;;;5028736;28;20032;-34
2023/06/09 11:15:04;;;;;;;3.20;2.90;;;24.50;92.20;;;;;;5044299;28;20723;-35
2023/06/09 11:17:33;;;;;;;3.53;3.22;;;24.60;92.10;;;;;;5048921;28;20378;-34
2023/06/09 11:20:08;;;;;;;3.65;3.33;;;24.60;92.10;;;;;;5049849;28;20048;-34
2023/06/09 11:22:49;;;;;;;3.75;3.22;;;24.60;91.90;;;;;;5048271;28;20067;-33
2023/06/09 11:25:15;;;;;;;4.22;3.83;;;24.70;91.70;;;;;;5049403;28;20032;-34
2023/06/09 11:27:41;;;;;;;4.13;3.58;;;24.80;91.50;;;;;;5049118;28;20851;-33
2023/06/09 11:30:14;;;;;;;3.70;3.40;;;24.90;91.30;;;;;;5048919;28;20028;-34
2023/06/09 11:32:47;;;;;;;3.55;3.25;;;24.90;91.20;;;;;;5049144;28;20107;-34
2023/06/09 11:35:39;;;;;;;3.53;3.22;;;25.00;91.20;;;;;;5049661;28;20116;-34
2023/06/09 11:38:18;;;;;;;4.85;3.40;;;25.00;91.10;;;;;;5045596;28;20056;-33
2023/06/09 11:40:52;;;;;;;4.47;3.13;;;25.10;91.00;;;;;;5048943;28;20043;-34
2023/06/09 11:43:21;;;;;;;4.03;3.38;;;25.10;90.90;;;;;;5048428;28;20071;-34
2023/06/09 11:45:47;;;;;;;4.57;3.85;;;25.20;90.80;;;;;;5048843;28;20159;-33
2023/06/09 11:48:15;;;;;;;3.60;3.30;;;25.20;90.60;;;;;;5049270;28;20510;-36
2023/06/09 11:50:44;;;;;;;3.40;3.10;;;25.30;90.50;;;;;;5047945;28;20033;-34
2023/06/09 11:53:20;;;;;;;3.72;3.42;;;25.40;90.50;;;;;;5048885;28;20522;-34
2023/06/09 11:55:46;;;;;;;4.00;3.60;;;25.40;90.40;;;;;;5049212;28;20033;-34
2023/06/09 11:58:15;;;;;;;4.88;4.35;;;25.50;90.10;;;;;;5048481;28;20028;-33
2023/06/09 12:00:42;;;;;;;4.82;4.32;;;25.60;88.80;;;;;;5048631;28;20079;-34
2023/06/09 12:03:10;;;;;;;3.65;3.38;;;25.70;87.90;;;;;;5047175;28;20473;-33
2023/06/09 12:05:36;;;;;;;4.07;3.22;;;25.80;87.60;;;;;;5046984;28;20032;-34
2023/06/09 12:08:02;;;;;;;3.53;3.20;;;25.90;87.70;;;;;;5037186;28;20068;-33
2023/06/09 12:10:29;;;;;;;4.68;4.10;;;25.90;88.50;;;;;;5047709;28;20048;-33
2023/06/09 12:12:58;;;;;;;4.88;4.00;;;25.90;87.10;;;;;;5044259;28;20567;-33
2023/06/09 12:15:28;;;;;;;4.70;3.72;;;25.90;86.60;;;;;;5044780;28;20090;-32
2023/06/09 12:17:56;;;;;;;3.97;3.58;;;26.00;86.00;;;;;;5045177;28;20040;-33
2023/06/09 12:20:26;;;;;;;4.47;3.90;;;26.10;86.00;;;;;;5045647;28;20143;-33
2023/06/09 12:23:17;;;;;;;4.72;3.50;;;26.20;85.30;;;;;;5045827;28;20276;-35
2023/06/09 12:25:48;;;;;;;3.60;3.30;;;26.30;84.90;;;;;;5043428;28;20045;-34
2023/06/09 12:28:19;;;;;;;3.65;3.35;;;26.30;84.80;;;;;;5045949;28;20017;-34
2023/06/09 12:30:56;;;;;;;6.18;3.58;;;26.40;85.00;;;;;;5045506;28;20598;-34
2023/06/09 12:33:23;;;;;;;3.70;3.40;;;26.50;84.80;;;;;;5044056;28;20025;-34
2023/06/09 12:35:51;;;;;;;3.53;3.22;;;26.50;85.00;;;;;;5046124;28;20029;-34
2023/06/09 12:38:19;;;;;;;4.03;3.47;;;26.50;83.60;;;;;;5045396;28;20597;-34
2023/06/09 12:40:56;;;;;;;4.47;3.78;;;26.60;83.50;;;;;;5045124;28;20095;-34
2023/06/09 12:43:24;;;;;;;4.63;3.72;;;26.60;82.10;;;;;;5045231;28;20024;-33
2023/06/09 12:45:54;;;;;;;3.42;3.10;;;26.70;82.10;;;;;;5045692;28;20043;-34
2023/06/09 12:48:20;;;;;;;3.40;3.10;;;26.80;82.20;;;;;;5043737;28;20024;-35
2023/06/09 12:50:46;;;;;;;3.38;3.08;;;26.80;82.30;;;;;;5024830;28;20025;-34
2023/06/09 12:53:13;;;;;;;3.30;3.00;;;26.90;82.20;;;;;;5038662;28;20132;-34